Strasburg, Ohio
Current Conditions -  °F | °C
As of 10:53 PM on Friday 24 Oct 2014 (Local Time) from KPHD Reporting Station
Broken Clouds Broken Clouds  
Wind Chill: 49°   Ceiling: 5000
Heat Index: 49°   Visibility: 10mi
Dew Point: 43°   Wind: 3mph
Humidity: 80%   Direction: 120°ESE
Pressure: 30.02"   Gusts: NA
Location:  40.59°N, 81.53°W
Report Text: KPHD 250253Z AUTO 12003KT 10SM BKN050 09/06 A3002 RMK AO2 SLP170 T00940061 58001
Loading
Personal Weather Stations






























Interactive Weather Map
Tropical Storm Tracking
New forecast layout! Learn more

10-Day Weather Forecast

Advertisements
Track Severe Weather on mobile